sensor_id;sensor_type;location;lat;lon;timestamp;P1;durP1;ratioP1;P2;durP2;ratioP2
31618;SDS011;18230;51.502;7.108;2023-11-21T00:04:41;29.13;;;12.05;;
31618;SDS011;18230;51.502;7.108;2023-11-21T00:09:42;29.67;;;13.95;;
31618;SDS011;18230;51.502;7.108;2023-11-21T00:14:43;28.15;;;13.35;;
31618;SDS011;18230;51.502;7.108;2023-11-21T00:19:43;26.92;;;13.00;;
31618;SDS011;18230;51.502;7.108;2023-11-21T00:24:44;23.65;;;11.68;;
31618;SDS011;18230;51.502;7.108;2023-11-21T00:29:44;31.05;;;12.48;;
31618;SDS011;18230;51.502;7.108;2023-11-21T00:34:45;29.45;;;12.00;;
31618;SDS011;18230;51.502;7.108;2023-11-21T00:39:46;25.15;;;11.93;;
31618;SDS011;18230;51.502;7.108;2023-11-21T00:44:46;31.58;;;11.85;;
31618;SDS011;18230;51.502;7.108;2023-11-21T00:49:47;22.08;;;11.10;;
31618;SDS011;18230;51.502;7.108;2023-11-21T00:54:49;25.48;;;11.43;;
31618;SDS011;18230;51.502;7.108;2023-11-21T00:59:49;29.83;;;12.52;;
31618;SDS011;18230;51.502;7.108;2023-11-21T01:04:50;21.50;;;11.35;;
31618;SDS011;18230;51.502;7.108;2023-11-21T01:09:50;33.80;;;10.73;;
31618;SDS011;18230;51.502;7.108;2023-11-21T01:14:51;23.98;;;11.25;;
31618;SDS011;18230;51.502;7.108;2023-11-21T01:19:52;31.95;;;11.88;;
31618;SDS011;18230;51.502;7.108;2023-11-21T01:24:53;25.77;;;11.77;;
31618;SDS011;18230;51.502;7.108;2023-11-21T01:29:53;26.50;;;11.60;;
31618;SDS011;18230;51.502;7.108;2023-11-21T01:34:54;25.15;;;11.48;;
31618;SDS011;18230;51.502;7.108;2023-11-21T01:39:58;22.55;;;10.77;;
31618;SDS011;18230;51.502;7.108;2023-11-21T01:44:59;25.08;;;10.90;;
31618;SDS011;18230;51.502;7.108;2023-11-21T01:50:00;23.92;;;10.68;;
31618;SDS011;18230;51.502;7.108;2023-11-21T01:55:01;27.35;;;11.35;;
31618;SDS011;18230;51.502;7.108;2023-11-21T02:00:03;20.90;;;10.45;;
31618;SDS011;18230;51.502;7.108;2023-11-21T02:05:15;23.05;;;11.00;;
31618;SDS011;18230;51.502;7.108;2023-11-21T02:10:19;27.65;;;10.90;;
31618;SDS011;18230;51.502;7.108;2023-11-21T02:15:23;27.00;;;12.68;;
31618;SDS011;18230;51.502;7.108;2023-11-21T02:20:26;28.10;;;12.38;;
31618;SDS011;18230;51.502;7.108;2023-11-21T02:25:30;26.33;;;11.88;;
31618;SDS011;18230;51.502;7.108;2023-11-21T02:30:34;22.98;;;10.75;;
31618;SDS011;18230;51.502;7.108;2023-11-21T02:35:35;28.52;;;12.68;;
31618;SDS011;18230;51.502;7.108;2023-11-21T02:40:36;25.05;;;11.07;;
31618;SDS011;18230;51.502;7.108;2023-11-21T02:45:36;24.08;;;10.98;;
31618;SDS011;18230;51.502;7.108;2023-11-21T02:50:37;29.60;;;12.65;;
31618;SDS011;18230;51.502;7.108;2023-11-21T02:55:38;25.70;;;11.60;;
31618;SDS011;18230;51.502;7.108;2023-11-21T03:00:39;27.35;;;11.35;;
31618;SDS011;18230;51.502;7.108;2023-11-21T03:05:42;25.73;;;12.18;;
31618;SDS011;18230;51.502;7.108;2023-11-21T03:10:43;36.53;;;12.15;;
31618;SDS011;18230;51.502;7.108;2023-11-21T03:15:43;24.92;;;11.45;;
31618;SDS011;18230;51.502;7.108;2023-11-21T03:20:44;26.98;;;11.65;;
31618;SDS011;18230;51.502;7.108;2023-11-21T03:25:46;31.48;;;11.27;;
31618;SDS011;18230;51.502;7.108;2023-11-21T03:30:46;23.70;;;12.13;;
31618;SDS011;18230;51.502;7.108;2023-11-21T03:35:47;25.83;;;12.52;;
31618;SDS011;18230;51.502;7.108;2023-11-21T03:40:49;28.77;;;13.30;;
31618;SDS011;18230;51.502;7.108;2023-11-21T03:45:50;25.13;;;11.73;;
31618;SDS011;18230;51.502;7.108;2023-11-21T03:50:51;30.35;;;11.88;;
31618;SDS011;18230;51.502;7.108;2023-11-21T03:55:51;29.25;;;12.23;;
31618;SDS011;18230;51.502;7.108;2023-11-21T04:00:53;26.17;;;12.18;;
31618;SDS011;18230;51.502;7.108;2023-11-21T04:05:54;22.05;;;10.95;;
31618;SDS011;18230;51.502;7.108;2023-11-21T04:10:54;28.83;;;11.52;;
31618;SDS011;18230;51.502;7.108;2023-11-21T04:15:55;36.60;;;11.85;;
31618;SDS011;18230;51.502;7.108;2023-11-21T04:20:56;26.17;;;11.23;;
31618;SDS011;18230;51.502;7.108;2023-11-21T04:25:57;27.30;;;12.55;;
31618;SDS011;18230;51.502;7.108;2023-11-21T04:30:57;29.90;;;12.48;;
31618;SDS011;18230;51.502;7.108;2023-11-21T04:35:58;22.33;;;11.52;;
31618;SDS011;18230;51.502;7.108;2023-11-21T04:40:59;21.92;;;11.15;;
31618;SDS011;18230;51.502;7.108;2023-11-21T04:45:59;27.08;;;11.80;;
31618;SDS011;18230;51.502;7.108;2023-11-21T04:51:02;24.02;;;11.20;;
31618;SDS011;18230;51.502;7.108;2023-11-21T04:56:04;26.67;;;11.18;;
31618;SDS011;18230;51.502;7.108;2023-11-21T05:01:05;22.85;;;12.13;;
31618;SDS011;18230;51.502;7.108;2023-11-21T05:06:10;28.48;;;12.32;;
31618;SDS011;18230;51.502;7.108;2023-11-21T05:11:11;26.02;;;11.88;;
31618;SDS011;18230;51.502;7.108;2023-11-21T05:16:12;26.20;;;11.40;;
31618;SDS011;18230;51.502;7.108;2023-11-21T05:21:14;28.88;;;12.57;;
31618;SDS011;18230;51.502;7.108;2023-11-21T05:26:15;30.08;;;11.68;;
31618;SDS011;18230;51.502;7.108;2023-11-21T05:31:15;24.20;;;11.50;;
31618;SDS011;18230;51.502;7.108;2023-11-21T05:36:16;25.00;;;12.20;;
31618;SDS011;18230;51.502;7.108;2023-11-21T05:41:17;30.98;;;11.82;;
31618;SDS011;18230;51.502;7.108;2023-11-21T05:46:17;29.50;;;12.23;;
31618;SDS011;18230;51.502;7.108;2023-11-21T05:51:18;27.05;;;11.75;;
31618;SDS011;18230;51.502;7.108;2023-11-21T05:56:19;23.50;;;11.70;;
31618;SDS011;18230;51.502;7.108;2023-11-21T06:01:19;28.42;;;11.35;;
31618;SDS011;18230;51.502;7.108;2023-11-21T06:06:20;22.92;;;10.68;;
31618;SDS011;18230;51.502;7.108;2023-11-21T06:11:22;29.13;;;12.35;;
31618;SDS011;18230;51.502;7.108;2023-11-21T06:16:24;24.63;;;11.50;;
31618;SDS011;18230;51.502;7.108;2023-11-21T06:21:25;28.55;;;11.73;;
31618;SDS011;18230;51.502;7.108;2023-11-21T06:26:25;21.75;;;10.77;;
31618;SDS011;18230;51.502;7.108;2023-11-21T06:31:27;21.92;;;10.65;;
31618;SDS011;18230;51.502;7.108;2023-11-21T06:36:27;21.40;;;11.00;;
31618;SDS011;18230;51.502;7.108;2023-11-21T06:41:28;24.05;;;10.75;;
31618;SDS011;18230;51.502;7.108;2023-11-21T06:46:29;30.95;;;11.52;;
31618;SDS011;18230;51.502;7.108;2023-11-21T06:51:30;27.35;;;13.43;;
31618;SDS011;18230;51.502;7.108;2023-11-21T06:56:30;22.77;;;11.15;;
31618;SDS011;18230;51.502;7.108;2023-11-21T07:01:31;26.00;;;12.35;;
31618;SDS011;18230;51.502;7.108;2023-11-21T07:06:38;26.67;;;12.43;;
31618;SDS011;18230;51.502;7.108;2023-11-21T07:11:39;31.45;;;12.73;;
31618;SDS011;18230;51.502;7.108;2023-11-21T07:16:40;30.20;;;12.80;;
31618;SDS011;18230;51.502;7.108;2023-11-21T07:21:40;29.92;;;13.95;;
31618;SDS011;18230;51.502;7.108;2023-11-21T07:26:41;36.03;;;14.73;;
31618;SDS011;18230;51.502;7.108;2023-11-21T07:31:41;36.65;;;15.10;;
31618;SDS011;18230;51.502;7.108;2023-11-21T07:36:42;33.83;;;14.25;;
31618;SDS011;18230;51.502;7.108;2023-11-21T07:41:43;37.75;;;14.68;;
31618;SDS011;18230;51.502;7.108;2023-11-21T07:46:48;33.17;;;14.73;;
31618;SDS011;18230;51.502;7.108;2023-11-21T07:51:49;37.90;;;17.45;;
31618;SDS011;18230;51.502;7.108;2023-11-21T07:56:50;37.17;;;16.80;;
31618;SDS011;18230;51.502;7.108;2023-11-21T08:01:51;53.28;;;23.67;;
31618;SDS011;18230;51.502;7.108;2023-11-21T08:06:51;57.88;;;24.88;;
31618;SDS011;18230;51.502;7.108;2023-11-21T08:11:52;63.13;;;26.65;;
31618;SDS011;18230;51.502;7.108;2023-11-21T08:16:53;68.72;;;28.92;;
31618;SDS011;18230;51.502;7.108;2023-11-21T08:21:57;99.20;;;38.90;;
31618;SDS011;18230;51.502;7.108;2023-11-21T08:26:59;99.72;;;37.45;;
31618;SDS011;18230;51.502;7.108;2023-11-21T08:31:59;102.65;;;36.80;;
31618;SDS011;18230;51.502;7.108;2023-11-21T08:37:00;102.22;;;41.00;;
31618;SDS011;18230;51.502;7.108;2023-11-21T08:42:01;102.13;;;41.30;;
31618;SDS011;18230;51.502;7.108;2023-11-21T08:47:02;117.75;;;41.85;;
31618;SDS011;18230;51.502;7.108;2023-11-21T08:52:05;114.85;;;43.92;;
31618;SDS011;18230;51.502;7.108;2023-11-21T08:57:06;114.00;;;45.13;;
31618;SDS011;18230;51.502;7.108;2023-11-21T09:02:07;127.40;;;45.80;;
31618;SDS011;18230;51.502;7.108;2023-11-21T09:07:08;114.40;;;45.00;;
31618;SDS011;18230;51.502;7.108;2023-11-21T09:12:09;123.13;;;46.53;;
31618;SDS011;18230;51.502;7.108;2023-11-21T09:17:11;129.32;;;47.10;;
31618;SDS011;18230;51.502;7.108;2023-11-21T09:22:11;126.68;;;48.95;;
31618;SDS011;18230;51.502;7.108;2023-11-21T09:27:12;121.55;;;46.47;;
31618;SDS011;18230;51.502;7.108;2023-11-21T09:32:13;124.32;;;47.22;;
31618;SDS011;18230;51.502;7.108;2023-11-21T09:37:18;128.30;;;46.95;;
31618;SDS011;18230;51.502;7.108;2023-11-21T09:42:22;122.78;;;44.10;;
31618;SDS011;18230;51.502;7.108;2023-11-21T09:47:27;129.00;;;48.00;;
31618;SDS011;18230;51.502;7.108;2023-11-21T09:52:28;125.07;;;47.50;;
31618;SDS011;18230;51.502;7.108;2023-11-21T09:57:29;128.15;;;48.47;;
31618;SDS011;18230;51.502;7.108;2023-11-21T10:02:30;130.05;;;46.80;;
31618;SDS011;18230;51.502;7.108;2023-11-21T10:07:36;132.25;;;48.97;;
31618;SDS011;18230;51.502;7.108;2023-11-21T10:12:37;124.20;;;48.08;;
31618;SDS011;18230;51.502;7.108;2023-11-21T10:17:38;129.55;;;46.97;;
31618;SDS011;18230;51.502;7.108;2023-11-21T10:22:45;122.40;;;45.85;;
31618;SDS011;18230;51.502;7.108;2023-11-21T10:27:47;128.05;;;46.30;;
31618;SDS011;18230;51.502;7.108;2023-11-21T10:32:51;117.25;;;47.90;;
31618;SDS011;18230;51.502;7.108;2023-11-21T10:38:00;119.88;;;44.25;;
31618;SDS011;18230;51.502;7.108;2023-11-21T10:43:07;121.70;;;43.80;;
31618;SDS011;18230;51.502;7.108;2023-11-21T10:48:26;103.70;;;41.40;;
31618;SDS011;18230;51.502;7.108;2023-11-21T10:53:28;121.63;;;43.97;;
31618;SDS011;18230;51.502;7.108;2023-11-21T10:58:29;114.75;;;44.53;;
31618;SDS011;18230;51.502;7.108;2023-11-21T11:03:32;104.30;;;42.85;;
31618;SDS011;18230;51.502;7.108;2023-11-21T11:08:36;93.78;;;37.92;;
31618;SDS011;18230;51.502;7.108;2023-11-21T11:13:37;94.03;;;37.65;;
31618;SDS011;18230;51.502;7.108;2023-11-21T11:18:39;126.80;;;47.38;;
31618;SDS011;18230;51.502;7.108;2023-11-21T11:39:37;93.07;;;41.03;;
31618;SDS011;18230;51.502;7.108;2023-11-21T11:55:18;84.40;;;38.53;;
31618;SDS011;18230;51.502;7.108;2023-11-21T12:00:20;78.95;;;36.28;;
31618;SDS011;18230;51.502;7.108;2023-11-21T12:05:27;70.32;;;34.53;;
31618;SDS011;18230;51.502;7.108;2023-11-21T12:10:28;42.33;;;22.88;;
31618;SDS011;18230;51.502;7.108;2023-11-21T12:15:34;38.05;;;20.00;;
31618;SDS011;18230;51.502;7.108;2023-11-21T12:20:35;37.58;;;20.80;;
31618;SDS011;18230;51.502;7.108;2023-11-21T12:25:38;43.88;;;22.23;;
31618;SDS011;18230;51.502;7.108;2023-11-21T12:30:39;44.05;;;23.52;;
31618;SDS011;18230;51.502;7.108;2023-11-21T12:35:40;44.47;;;23.48;;
31618;SDS011;18230;51.502;7.108;2023-11-21T12:40:43;46.97;;;23.17;;
31618;SDS011;18230;51.502;7.108;2023-11-21T12:45:44;38.00;;;19.90;;
31618;SDS011;18230;51.502;7.108;2023-11-21T12:50:45;32.28;;;19.60;;
31618;SDS011;18230;51.502;7.108;2023-11-21T12:55:48;33.28;;;18.83;;
31618;SDS011;18230;51.502;7.108;2023-11-21T13:00:50;27.33;;;16.60;;
31618;SDS011;18230;51.502;7.108;2023-11-21T13:05:51;29.60;;;15.73;;
31618;SDS011;18230;51.502;7.108;2023-11-21T13:10:58;24.92;;;14.35;;
31618;SDS011;18230;51.502;7.108;2023-11-21T13:16:00;26.75;;;14.70;;
31618;SDS011;18230;51.502;7.108;2023-11-21T13:21:04;25.02;;;14.23;;
31618;SDS011;18230;51.502;7.108;2023-11-21T13:26:16;26.10;;;16.48;;
31618;SDS011;18230;51.502;7.108;2023-11-21T13:31:16;29.50;;;16.88;;
31618;SDS011;18230;51.502;7.108;2023-11-21T13:36:27;29.38;;;16.15;;
31618;SDS011;18230;51.502;7.108;2023-11-21T13:41:31;31.33;;;16.98;;
31618;SDS011;18230;51.502;7.108;2023-11-21T13:46:32;28.02;;;15.35;;
31618;SDS011;18230;51.502;7.108;2023-11-21T13:51:37;28.30;;;15.15;;
31618;SDS011;18230;51.502;7.108;2023-11-21T13:56:43;31.65;;;16.02;;
31618;SDS011;18230;51.502;7.108;2023-11-21T14:01:46;23.48;;;14.20;;
31618;SDS011;18230;51.502;7.108;2023-11-21T14:06:55;25.85;;;15.02;;
31618;SDS011;18230;51.502;7.108;2023-11-21T14:11:56;25.95;;;14.77;;
31618;SDS011;18230;51.502;7.108;2023-11-21T14:16:57;26.65;;;14.48;;
31618;SDS011;18230;51.502;7.108;2023-11-21T14:21:59;23.25;;;12.23;;
31618;SDS011;18230;51.502;7.108;2023-11-21T14:27:00;21.80;;;11.70;;
31618;SDS011;18230;51.502;7.108;2023-11-21T14:32:00;22.30;;;12.43;;
31618;SDS011;18230;51.502;7.108;2023-11-21T14:37:01;22.80;;;11.82;;
31618;SDS011;18230;51.502;7.108;2023-11-21T14:42:04;20.63;;;11.25;;
31618;SDS011;18230;51.502;7.108;2023-11-21T14:47:08;15.38;;;9.40;;
31618;SDS011;18230;51.502;7.108;2023-11-21T14:52:15;15.07;;;7.95;;
31618;SDS011;18230;51.502;7.108;2023-11-21T14:57:34;15.63;;;7.65;;
31618;SDS011;18230;51.502;7.108;2023-11-21T15:02:36;18.23;;;7.20;;
31618;SDS011;18230;51.502;7.108;2023-11-21T15:07:48;8.63;;;6.18;;
31618;SDS011;18230;51.502;7.108;2023-11-21T15:12:49;8.35;;;5.25;;
31618;SDS011;18230;51.502;7.108;2023-11-21T15:17:50;9.73;;;6.32;;
31618;SDS011;18230;51.502;7.108;2023-11-21T15:22:51;11.50;;;6.55;;
31618;SDS011;18230;51.502;7.108;2023-11-21T15:27:52;9.20;;;6.32;;
31618;SDS011;18230;51.502;7.108;2023-11-21T15:32:52;9.05;;;6.15;;
31618;SDS011;18230;51.502;7.108;2023-11-21T15:37:54;10.45;;;7.38;;
31618;SDS011;18230;51.502;7.108;2023-11-21T15:42:58;12.13;;;9.15;;
31618;SDS011;18230;51.502;7.108;2023-11-21T15:47:59;16.67;;;10.13;;
31618;SDS011;18230;51.502;7.108;2023-11-21T15:53:01;16.75;;;10.43;;
31618;SDS011;18230;51.502;7.108;2023-11-21T15:58:04;22.13;;;13.88;;
31618;SDS011;18230;51.502;7.108;2023-11-21T16:03:06;22.33;;;13.93;;
31618;SDS011;18230;51.502;7.108;2023-11-21T16:08:09;25.00;;;16.65;;
31618;SDS011;18230;51.502;7.108;2023-11-21T16:13:10;25.70;;;15.65;;
31618;SDS011;18230;51.502;7.108;2023-11-21T16:18:10;26.40;;;16.20;;
31618;SDS011;18230;51.502;7.108;2023-11-21T16:23:11;22.13;;;14.70;;
31618;SDS011;18230;51.502;7.108;2023-11-21T16:28:12;21.80;;;13.70;;
31618;SDS011;18230;51.502;7.108;2023-11-21T16:33:13;23.02;;;12.50;;
31618;SDS011;18230;51.502;7.108;2023-11-21T16:38:14;16.48;;;11.60;;
31618;SDS011;18230;51.502;7.108;2023-11-21T16:43:15;17.40;;;11.05;;
31618;SDS011;18230;51.502;7.108;2023-11-21T16:48:16;15.60;;;10.27;;
31618;SDS011;18230;51.502;7.108;2023-11-21T16:53:16;16.00;;;10.77;;
31618;SDS011;18230;51.502;7.108;2023-11-21T16:58:17;14.30;;;10.40;;
31618;SDS011;18230;51.502;7.108;2023-11-21T17:03:18;15.60;;;10.05;;
31618;SDS011;18230;51.502;7.108;2023-11-21T17:08:20;14.90;;;9.73;;
31618;SDS011;18230;51.502;7.108;2023-11-21T17:13:20;17.83;;;11.00;;
31618;SDS011;18230;51.502;7.108;2023-11-21T17:18:21;18.50;;;9.10;;
31618;SDS011;18230;51.502;7.108;2023-11-21T17:23:23;17.40;;;10.20;;
31618;SDS011;18230;51.502;7.108;2023-11-21T17:28:24;16.50;;;9.70;;
31618;SDS011;18230;51.502;7.108;2023-11-21T17:33:24;16.55;;;8.60;;
31618;SDS011;18230;51.502;7.108;2023-11-21T17:38:25;16.88;;;8.32;;
31618;SDS011;18230;51.502;7.108;2023-11-21T17:43:25;16.35;;;9.38;;
31618;SDS011;18230;51.502;7.108;2023-11-21T17:48:26;14.50;;;8.93;;
31618;SDS011;18230;51.502;7.108;2023-11-21T17:53:30;13.65;;;8.45;;
31618;SDS011;18230;51.502;7.108;2023-11-21T17:58:31;12.30;;;7.72;;
31618;SDS011;18230;51.502;7.108;2023-11-21T18:03:32;13.77;;;8.05;;
31618;SDS011;18230;51.502;7.108;2023-11-21T18:08:32;16.15;;;7.90;;
31618;SDS011;18230;51.502;7.108;2023-11-21T18:13:34;13.45;;;8.30;;
31618;SDS011;18230;51.502;7.108;2023-11-21T18:18:35;12.55;;;8.20;;
31618;SDS011;18230;51.502;7.108;2023-11-21T18:23:36;16.33;;;8.52;;
31618;SDS011;18230;51.502;7.108;2023-11-21T18:28:36;14.23;;;8.38;;
31618;SDS011;18230;51.502;7.108;2023-11-21T18:33:39;14.60;;;8.05;;
31618;SDS011;18230;51.502;7.108;2023-11-21T18:38:40;12.48;;;7.65;;
31618;SDS011;18230;51.502;7.108;2023-11-21T18:43:41;14.63;;;8.57;;
31618;SDS011;18230;51.502;7.108;2023-11-21T18:48:41;12.70;;;7.90;;
31618;SDS011;18230;51.502;7.108;2023-11-21T18:53:42;14.60;;;8.50;;
31618;SDS011;18230;51.502;7.108;2023-11-21T18:58:43;15.02;;;8.93;;
31618;SDS011;18230;51.502;7.108;2023-11-21T19:03:44;13.80;;;9.80;;
31618;SDS011;18230;51.502;7.108;2023-11-21T19:08:45;15.02;;;9.52;;
31618;SDS011;18230;51.502;7.108;2023-11-21T19:13:45;15.82;;;10.07;;
31618;SDS011;18230;51.502;7.108;2023-11-21T19:18:49;18.98;;;10.85;;
31618;SDS011;18230;51.502;7.108;2023-11-21T19:23:49;18.80;;;10.73;;
31618;SDS011;18230;51.502;7.108;2023-11-21T19:28:51;19.98;;;11.38;;
31618;SDS011;18230;51.502;7.108;2023-11-21T19:33:52;18.88;;;11.32;;
31618;SDS011;18230;51.502;7.108;2023-11-21T19:38:53;19.75;;;12.07;;
31618;SDS011;18230;51.502;7.108;2023-11-21T19:43:53;19.10;;;11.50;;
31618;SDS011;18230;51.502;7.108;2023-11-21T19:48:55;19.25;;;11.52;;
31618;SDS011;18230;51.502;7.108;2023-11-21T19:53:56;17.98;;;11.30;;
31618;SDS011;18230;51.502;7.108;2023-11-21T19:58:56;22.02;;;12.95;;
31618;SDS011;18230;51.502;7.108;2023-11-21T20:03:57;24.42;;;13.48;;
31618;SDS011;18230;51.502;7.108;2023-11-21T20:08:57;21.88;;;13.55;;
31618;SDS011;18230;51.502;7.108;2023-11-21T20:14:01;23.83;;;13.50;;
31618;SDS011;18230;51.502;7.108;2023-11-21T20:19:03;22.92;;;13.75;;
31618;SDS011;18230;51.502;7.108;2023-11-21T20:24:03;22.38;;;13.40;;
31618;SDS011;18230;51.502;7.108;2023-11-21T20:29:04;20.83;;;14.27;;
31618;SDS011;18230;51.502;7.108;2023-11-21T20:34:05;21.70;;;14.07;;
31618;SDS011;18230;51.502;7.108;2023-11-21T20:39:05;25.88;;;14.95;;
31618;SDS011;18230;51.502;7.108;2023-11-21T20:44:06;21.88;;;14.25;;
31618;SDS011;18230;51.502;7.108;2023-11-21T20:49:11;20.98;;;14.10;;
31618;SDS011;18230;51.502;7.108;2023-11-21T20:54:13;20.92;;;14.80;;
31618;SDS011;18230;51.502;7.108;2023-11-21T20:59:14;21.02;;;14.45;;
31618;SDS011;18230;51.502;7.108;2023-11-21T21:04:14;21.30;;;14.43;;
31618;SDS011;18230;51.502;7.108;2023-11-21T21:09:18;21.52;;;13.35;;
31618;SDS011;18230;51.502;7.108;2023-11-21T21:14:18;22.33;;;14.25;;
31618;SDS011;18230;51.502;7.108;2023-11-21T21:19:19;17.75;;;12.85;;
31618;SDS011;18230;51.502;7.108;2023-11-21T21:24:20;20.20;;;13.25;;
31618;SDS011;18230;51.502;7.108;2023-11-21T21:29:20;17.88;;;11.52;;
31618;SDS011;18230;51.502;7.108;2023-11-21T21:34:25;21.15;;;11.57;;
31618;SDS011;18230;51.502;7.108;2023-11-21T21:39:26;19.05;;;11.63;;
31618;SDS011;18230;51.502;7.108;2023-11-21T21:44:27;16.40;;;11.10;;
31618;SDS011;18230;51.502;7.108;2023-11-21T21:49:27;17.50;;;10.82;;
31618;SDS011;18230;51.502;7.108;2023-11-21T21:54:28;17.67;;;12.00;;
31618;SDS011;18230;51.502;7.108;2023-11-21T21:59:28;18.88;;;12.30;;
31618;SDS011;18230;51.502;7.108;2023-11-21T22:04:29;19.67;;;13.00;;
31618;SDS011;18230;51.502;7.108;2023-11-21T22:09:31;20.30;;;12.90;;
31618;SDS011;18230;51.502;7.108;2023-11-21T22:14:33;19.02;;;13.07;;
31618;SDS011;18230;51.502;7.108;2023-11-21T22:19:34;22.33;;;13.18;;
31618;SDS011;18230;51.502;7.108;2023-11-21T22:24:37;17.67;;;12.02;;
31618;SDS011;18230;51.502;7.108;2023-11-21T22:29:37;17.08;;;10.57;;
31618;SDS011;18230;51.502;7.108;2023-11-21T22:34:39;17.02;;;10.30;;
31618;SDS011;18230;51.502;7.108;2023-11-21T22:39:40;13.65;;;8.77;;
31618;SDS011;18230;51.502;7.108;2023-11-21T22:44:41;12.88;;;7.63;;
31618;SDS011;18230;51.502;7.108;2023-11-21T22:49:42;12.13;;;8.07;;
31618;SDS011;18230;51.502;7.108;2023-11-21T22:54:43;10.18;;;7.50;;
31618;SDS011;18230;51.502;7.108;2023-11-21T22:59:43;12.68;;;7.90;;
31618;SDS011;18230;51.502;7.108;2023-11-21T23:04:45;12.48;;;7.88;;
31618;SDS011;18230;51.502;7.108;2023-11-21T23:09:45;11.95;;;7.97;;
31618;SDS011;18230;51.502;7.108;2023-11-21T23:14:46;12.07;;;7.57;;
31618;SDS011;18230;51.502;7.108;2023-11-21T23:19:47;13.32;;;8.27;;
31618;SDS011;18230;51.502;7.108;2023-11-21T23:24:47;10.82;;;6.95;;
31618;SDS011;18230;51.502;7.108;2023-11-21T23:29:49;10.18;;;6.93;;
31618;SDS011;18230;51.502;7.108;2023-11-21T23:34:53;11.10;;;6.97;;
31618;SDS011;18230;51.502;7.108;2023-11-21T23:39:54;12.35;;;6.72;;
31618;SDS011;18230;51.502;7.108;2023-11-21T23:44:54;15.10;;;7.15;;
31618;SDS011;18230;51.502;7.108;2023-11-21T23:49:55;11.63;;;7.30;;
31618;SDS011;18230;51.502;7.108;2023-11-21T23:54:57;13.23;;;7.88;;
31618;SDS011;18230;51.502;7.108;2023-11-21T23:59:59;10.25;;;6.68;;
